createdAt,value
2022-08-05T00:01:28.059Z,22.21
2022-08-05T00:06:33.201Z,22.24
2022-08-05T00:11:49.068Z,22.10
2022-08-05T00:16:58.761Z,22.12
2022-08-05T00:22:04.902Z,22.05
2022-08-05T00:27:10.290Z,21.99
2022-08-05T00:32:17.583Z,21.98
2022-08-05T00:37:20.214Z,22.00
2022-08-05T00:42:32.147Z,22.03
2022-08-05T00:47:56.926Z,22.08
2022-08-05T00:52:58.803Z,22.07
2022-08-05T00:58:01.698Z,22.02
2022-08-05T01:03:08.215Z,21.70
2022-08-05T01:08:40.997Z,21.70
2022-08-05T01:13:57.403Z,21.65
2022-08-05T01:19:12.173Z,21.62
2022-08-05T01:24:45.089Z,21.63
2022-08-05T01:29:52.695Z,21.66
2022-08-05T01:35:00.299Z,21.43
2022-08-05T01:40:05.854Z,21.48
2022-08-05T01:45:10.348Z,21.44
2022-08-05T01:50:17.361Z,21.41
2022-08-05T01:55:23.493Z,21.28
2022-08-05T02:00:30.447Z,21.21
2022-08-05T02:05:36.735Z,21.21
2022-08-05T02:10:44.709Z,21.21
2022-08-05T02:15:51.023Z,21.31
2022-08-05T02:20:58.969Z,21.34
2022-08-05T02:26:06.268Z,21.49
2022-08-05T02:31:20.944Z,21.45
2022-08-05T02:36:27.605Z,21.43
2022-08-05T02:41:42.903Z,21.37
2022-08-05T02:47:00.677Z,21.16
2022-08-05T02:52:06.312Z,21.23
2022-08-05T02:58:09.164Z,21.28
2022-08-05T03:02:39.833Z,21.31
2022-08-05T03:08:00.912Z,21.25
2022-08-05T03:13:12.479Z,21.36
2022-08-05T03:18:24.657Z,21.41
2022-08-05T03:23:33.965Z,21.41
2022-08-05T03:28:38.117Z,21.33
2022-08-05T03:33:49.331Z,21.34
2022-08-05T03:38:55.298Z,21.17
2022-08-05T03:44:09.293Z,21.11
2022-08-05T03:49:15.040Z,21.07
2022-08-05T03:55:52.517Z,21.07
2022-08-05T03:59:54.875Z,20.97
2022-08-05T04:04:59.319Z,20.98
2022-08-05T04:10:03.097Z,21.11
2022-08-05T04:15:07.314Z,21.17
2022-08-05T04:20:19.925Z,21.07
2022-08-05T04:25:38.335Z,21.28
2022-08-05T04:30:46.748Z,21.42
2022-08-05T04:36:15.912Z,21.54
2022-08-05T04:41:13.962Z,21.71
2022-08-05T04:46:28.248Z,21.95
2022-08-05T04:51:32.187Z,21.99
2022-08-05T04:56:37.250Z,22.22
2022-08-05T05:02:06.686Z,22.33
2022-08-05T05:07:03.463Z,22.56
2022-08-05T05:12:06.404Z,22.67
2022-08-05T05:17:10.302Z,22.87
2022-08-05T05:22:23.739Z,23.07
2022-08-05T05:27:44.166Z,23.26
2022-08-05T05:32:51.454Z,23.51
2022-08-05T05:38:01.474Z,23.72
2022-08-05T05:43:05.141Z,23.89
2022-08-05T05:48:11.891Z,24.06
2022-08-05T05:53:21.558Z,24.18
2022-08-05T05:58:30.387Z,24.30
2022-08-05T06:03:53.853Z,24.51
2022-08-05T06:08:59.602Z,24.79
2022-08-05T06:14:02.544Z,24.94
2022-08-05T06:19:07.298Z,25.12
2022-08-05T06:24:12.724Z,25.36
2022-08-05T06:29:42.982Z,25.51
2022-08-05T06:34:40.343Z,25.84
2022-08-05T06:39:44.927Z,26.10
2022-08-05T06:44:49.191Z,26.21
2022-08-05T06:50:01.931Z,26.28
2022-08-05T06:55:09.209Z,26.51
2022-08-05T07:00:12.870Z,26.69
2022-08-05T07:05:18.847Z,26.86
2022-08-05T07:10:30.478Z,27.00
2022-08-05T07:16:01.057Z,27.15
2022-08-05T07:21:07.378Z,27.35
2022-08-05T07:26:13.379Z,27.69
2022-08-05T07:31:17.028Z,27.18
2022-08-05T07:36:21.753Z,27.34
2022-08-05T07:42:14.526Z,27.60
2022-08-05T07:46:49.573Z,27.71
2022-08-05T07:51:53.633Z,28.32
2022-08-05T07:57:14.642Z,27.72
2022-08-05T08:02:26.644Z,27.68
2022-08-05T08:07:39.567Z,28.07
2022-08-05T08:12:58.523Z,27.62
2022-08-05T08:18:08.171Z,27.43
2022-08-05T08:24:03.012Z,28.37
2022-08-05T08:28:59.503Z,28.81
2022-08-05T08:34:02.389Z,29.24
2022-08-05T08:39:15.753Z,29.25
2022-08-05T08:45:25.130Z,28.46
2022-08-05T08:50:23.391Z,29.24
2022-08-05T08:55:13.244Z,29.87
2022-08-05T09:00:19.277Z,29.90
2022-08-05T09:05:38.482Z,30.64
2022-08-05T09:10:46.848Z,30.29
2022-08-05T09:15:50.983Z,29.48
2022-08-05T09:20:54.162Z,30.47
2022-08-05T09:26:09.199Z,30.92
2022-08-05T09:32:38.860Z,30.66
2022-08-05T09:36:54.132Z,31.03
2022-08-05T09:41:59.826Z,30.94
2022-08-05T09:47:12.679Z,29.98
2022-08-05T09:52:21.803Z,30.11
2022-08-05T09:57:39.530Z,31.11
2022-08-05T10:02:45.153Z,31.58
2022-08-05T10:08:35.880Z,31.94
2022-08-05T10:13:31.705Z,31.97
2022-08-05T10:18:49.970Z,31.17
2022-08-05T10:23:58.995Z,31.03
2022-08-05T10:29:03.627Z,31.62
2022-08-05T10:34:08.242Z,31.61
2022-08-05T10:39:24.530Z,32.10
2022-08-05T10:44:39.039Z,31.34
2022-08-05T10:50:31.722Z,32.75
2022-08-05T11:01:28.062Z,31.58
2022-08-05T11:07:06.121Z,32.71
2022-08-05T11:12:45.387Z,33.02
2022-08-05T11:17:58.883Z,33.61
2022-08-05T11:24:04.472Z,33.62
2022-08-05T11:29:02.441Z,33.00
2022-08-05T11:34:17.208Z,32.68
2022-08-05T11:39:48.958Z,32.76
2022-08-05T11:44:54.634Z,33.17
2022-08-05T11:50:00.154Z,33.24
2022-08-05T11:55:10.520Z,33.48
2022-08-05T12:00:28.717Z,32.26
2022-08-05T12:05:36.468Z,32.14
2022-08-05T12:10:46.331Z,32.85
2022-08-05T12:15:49.775Z,33.85
2022-08-05T12:20:53.107Z,34.00
2022-08-05T12:25:57.295Z,34.00
2022-08-05T12:31:02.224Z,33.16
2022-08-05T12:36:07.151Z,32.38
2022-08-05T12:41:16.178Z,31.72
2022-08-05T12:46:28.933Z,31.09
2022-08-05T12:52:12.628Z,31.56
2022-08-05T12:57:09.483Z,31.09
2022-08-05T13:02:15.672Z,30.77
2022-08-05T13:07:55.021Z,30.52
2022-08-05T13:12:51.295Z,30.67
2022-08-05T13:18:00.827Z,31.85
2022-08-05T13:23:07.402Z,32.00
2022-08-05T13:28:12.005Z,31.56
2022-08-05T13:34:24.869Z,32.15
2022-08-05T13:38:42.221Z,32.61
2022-08-05T13:43:55.251Z,33.07
2022-08-05T13:49:00.886Z,32.77
2022-08-05T13:54:12.397Z,31.96
2022-08-05T13:59:19.433Z,31.17
2022-08-05T14:04:41.230Z,30.54
2022-08-05T14:09:46.498Z,30.64
2022-08-05T14:14:51.402Z,30.52
2022-08-05T14:19:56.075Z,31.33
2022-08-05T14:25:00.333Z,31.41
2022-08-05T14:30:04.378Z,31.47
2022-08-05T14:35:10.787Z,31.56
2022-08-05T14:40:16.629Z,31.62
2022-08-05T14:45:21.794Z,31.54
2022-08-05T14:50:26.135Z,31.56
2022-08-05T14:55:39.407Z,31.55
2022-08-05T15:00:58.619Z,31.44
2022-08-05T15:06:13.419Z,31.29
2022-08-05T15:11:19.126Z,31.38
2022-08-05T15:16:22.677Z,31.32
2022-08-05T15:21:25.386Z,30.78
2022-08-05T15:26:33.034Z,30.28
2022-08-05T15:31:36.431Z,29.98
2022-08-05T15:36:40.082Z,29.71
2022-08-05T15:41:57.930Z,29.73
2022-08-05T15:47:03.138Z,29.60
2022-08-05T15:52:16.180Z,29.27
2022-08-05T15:57:20.146Z,29.17
2022-08-05T16:02:25.640Z,28.99
2022-08-05T16:07:30.285Z,28.54
2022-08-05T16:12:32.846Z,28.25
2022-08-05T16:17:36.301Z,28.11
2022-08-05T16:22:39.288Z,28.09
2022-08-05T16:27:59.626Z,27.91
2022-08-05T16:33:04.728Z,27.81
2022-08-05T16:38:23.859Z,27.60
2022-08-05T16:43:30.329Z,27.60
2022-08-05T16:48:35.518Z,27.49
2022-08-05T16:54:05.331Z,27.27
2022-08-05T16:59:08.809Z,27.15
2022-08-05T17:04:12.757Z,27.09
2022-08-05T17:09:17.796Z,26.86
2022-08-05T17:14:34.307Z,26.68
2022-08-05T17:19:43.608Z,26.52
2022-08-05T17:24:57.257Z,26.41
2022-08-05T17:30:02.913Z,26.24
2022-08-05T17:35:08.811Z,26.29
2022-08-05T17:40:18.091Z,26.37
2022-08-05T17:45:29.717Z,26.26
2022-08-05T17:50:42.263Z,26.23
2022-08-05T17:55:45.210Z,26.12
2022-08-05T18:00:50.996Z,25.92
2022-08-05T18:05:54.790Z,25.88
2022-08-05T18:11:04.344Z,25.81
2022-08-05T18:16:09.417Z,25.59
2022-08-05T18:21:21.267Z,25.63
2022-08-05T18:26:29.490Z,25.63
2022-08-05T18:31:35.543Z,25.52
2022-08-05T18:36:39.442Z,25.36
2022-08-05T18:41:55.605Z,25.32
2022-08-05T18:47:04.158Z,25.08
2022-08-05T18:52:33.026Z,25.04
2022-08-05T18:57:49.881Z,24.93
2022-08-05T19:02:58.282Z,25.01
2022-08-05T19:08:15.823Z,24.93
2022-08-05T19:13:22.051Z,25.02
2022-08-05T19:18:25.592Z,24.91
2022-08-05T19:24:07.068Z,24.71
2022-08-05T19:28:57.041Z,24.70
2022-08-05T19:34:00.546Z,24.54
2022-08-05T19:39:05.908Z,24.44
2022-08-05T19:44:13.244Z,24.45
2022-08-05T19:49:17.809Z,24.36
2022-08-05T19:54:25.474Z,24.35
2022-08-05T19:59:56.102Z,24.33
2022-08-05T20:04:58.733Z,24.21
2022-08-05T20:10:04.871Z,24.04
2022-08-05T20:15:15.385Z,23.96
2022-08-05T20:20:26.415Z,23.88
2022-08-05T20:25:33.846Z,23.88
2022-08-05T20:30:45.293Z,23.74
2022-08-05T20:35:50.594Z,23.43
2022-08-05T20:40:53.913Z,23.33
2022-08-05T20:45:58.027Z,23.33
2022-08-05T20:51:07.152Z,23.26
2022-08-05T20:56:11.962Z,23.33
2022-08-05T21:01:14.778Z,23.31
2022-08-05T21:06:27.847Z,23.18
2022-08-05T21:12:07.532Z,23.20
2022-08-05T21:16:54.431Z,23.24
2022-08-05T21:21:56.902Z,23.16
2022-08-05T21:27:00.240Z,23.08
2022-08-05T21:32:03.947Z,23.06
2022-08-05T21:37:07.712Z,22.92
2022-08-05T21:42:29.112Z,22.87
2022-08-05T21:47:57.051Z,22.76
2022-08-05T21:52:58.957Z,22.76
2022-08-05T21:58:10.525Z,22.64
2022-08-05T22:03:14.771Z,22.62
2022-08-05T22:08:22.043Z,22.53
2022-08-05T22:14:19.586Z,22.39
2022-08-05T22:18:50.100Z,22.44
2022-08-05T22:24:39.311Z,22.43
2022-08-05T22:29:35.252Z,22.37
2022-08-05T22:34:38.113Z,22.28
2022-08-05T22:39:40.605Z,22.32
2022-08-05T22:44:48.365Z,22.30
2022-08-05T22:50:19.893Z,22.09
2022-08-05T22:55:23.514Z,21.97
2022-08-05T23:00:26.952Z,22.05
2022-08-05T23:05:30.067Z,22.04
2022-08-05T23:10:38.594Z,22.04
2022-08-05T23:15:42.408Z,21.99
2022-08-05T23:20:45.563Z,22.13
2022-08-05T23:25:54.998Z,22.21
2022-08-05T23:31:16.411Z,22.08
2022-08-05T23:36:19.327Z,21.93
2022-08-05T23:41:21.868Z,21.88
2022-08-05T23:46:25.129Z,21.96
2022-08-05T23:51:53.506Z,22.03
2022-08-05T23:57:04.190Z,21.90
